Time;durP1;ratioP1;P1;durP2;ratioP2;P2;SDS_P1;SDS_P2;PMS_P1;PMS_P2;Temp;Humidity;BMP_temperature;BMP_pressure;BME280_temperature;BME280_humidity;BME280_pressure;Samples;Min_cycle;Max_cycle;Signal;HPM_P1;HPM_P2
2022/07/05 00:00:36;;;;;;;16.50;6.10;;;;;;;13.71;81.84;101960.31;5071056;28;20127;-80
2022/07/05 00:03:01;;;;;;;15.43;5.60;;;;;;;13.70;81.71;101963.97;5064718;28;20020;-80
2022/07/05 00:05:26;;;;;;;15.45;5.70;;;;;;;13.68;81.80;101961.38;5067831;28;20111;-80
2022/07/05 00:07:52;;;;;;;17.30;5.93;;;;;;;13.63;81.75;101960.81;5066543;28;20055;-80
2022/07/05 00:10:18;;;;;;;16.70;6.28;;;;;;;13.56;82.07;101965.78;5073369;28;20978;-79
2022/07/05 00:12:43;;;;;;;15.35;6.22;;;;;;;13.49;82.75;101959.09;5073908;28;20044;-80
2022/07/05 00:15:09;;;;;;;17.02;6.55;;;;;;;13.46;82.07;101951.19;5067684;28;20433;-80
2022/07/05 00:17:34;;;;;;;15.50;6.43;;;;;;;13.48;82.26;101953.78;5080098;28;20387;-80
2022/07/05 00:20:00;;;;;;;17.60;7.03;;;;;;;13.42;82.67;101949.66;5068082;28;20020;-80
2022/07/05 00:22:25;;;;;;;17.90;6.60;;;;;;;13.34;82.80;101951.97;5071363;28;20377;-80
2022/07/05 00:24:50;;;;;;;18.73;6.38;;;;;;;13.30;82.93;101951.31;5069890;28;20056;-80
2022/07/05 00:27:16;;;;;;;20.83;6.53;;;;;;;13.25;82.91;101948.06;5081199;28;20020;-80
2022/07/05 00:29:41;;;;;;;17.67;7.00;;;;;;;13.21;83.52;101954.66;5071822;28;20033;-80
2022/07/05 00:32:06;;;;;;;17.38;6.55;;;;;;;13.19;83.67;101953.88;5069821;28;20024;-80
2022/07/05 00:34:31;;;;;;;18.08;7.63;;;;;;;13.19;83.37;101949.34;5072368;28;20086;-80
2022/07/05 00:36:57;;;;;;;15.75;6.00;;;;;;;13.16;83.45;101945.97;5068961;28;20476;-80
2022/07/05 00:39:22;;;;;;;16.60;6.68;;;;;;;13.13;83.62;101941.66;5068106;28;20128;-80
2022/07/05 00:41:47;;;;;;;17.10;6.53;;;;;;;13.10;83.87;101944.56;5074704;28;20035;-80
2022/07/05 00:44:15;;;;;;;16.38;5.82;;;;;;;13.11;83.73;101946.28;5069049;28;20040;-80
2022/07/05 00:46:43;;;;;;;15.30;5.60;;;;;;;13.08;83.96;101938.41;5070991;28;20081;-80
2022/07/05 00:49:08;;;;;;;14.38;5.68;;;;;;;13.04;83.96;101945.81;5077909;28;20069;-80
2022/07/05 00:51:37;;;;;;;14.40;5.10;;;;;;;13.02;84.31;101942.38;5068321;28;20021;-80
2022/07/05 00:54:05;;;;;;;15.52;6.10;;;;;;;13.01;84.06;101945.16;5078174;28;20052;-80
2022/07/05 00:56:30;;;;;;;13.57;5.30;;;;;;;12.97;84.20;101941.78;5073825;28;20038;-80
2022/07/05 00:58:55;;;;;;;14.77;5.50;;;;;;;12.98;84.40;101946.22;5080122;28;20030;-80
2022/07/05 01:01:21;;;;;;;15.98;5.72;;;;;;;12.96;84.63;101944.59;5075975;28;20028;-79
2022/07/05 01:03:46;;;;;;;14.23;5.20;;;;;;;12.94;84.37;101945.59;5069984;28;20035;-79
2022/07/05 01:06:13;;;;;;;14.82;5.20;;;;;;;12.89;84.73;101946.84;5081536;28;20695;-79
2022/07/05 01:08:40;;;;;;;15.23;5.63;;;;;;;12.83;84.75;101950.81;5076961;28;20149;-79
2022/07/05 01:11:07;;;;;;;14.38;5.78;;;;;;;12.77;84.87;101943.97;5068284;28;20150;-79
2022/07/05 01:13:33;;;;;;;15.45;5.65;;;;;;;12.75;85.24;101948.63;5068499;28;20025;-79
2022/07/05 01:15:59;;;;;;;20.13;5.78;;;;;;;12.73;85.75;101952.38;5077292;28;20039;-79
2022/07/05 01:18:25;;;;;;;15.95;5.85;;;;;;;12.74;85.20;101943.31;5069227;28;20020;-79
2022/07/05 01:20:51;;;;;;;17.67;6.00;;;;;;;12.71;85.08;101951.63;5085476;28;20028;-79
2022/07/05 01:23:20;;;;;;;16.75;6.07;;;;;;;12.66;85.27;101954.59;5072348;28;20558;-79
2022/07/05 01:25:47;;;;;;;;;;;;;;;12.76;83.02;101952.19;5076609;28;20028;-79
2022/07/05 01:28:13;;;;;;;16.95;6.82;;;;;;;12.71;85.27;101957.88;5068333;28;19912;-79
2022/07/05 01:30:40;;;;;;;14.70;5.45;;;;;;;12.69;84.75;101950.84;5067171;28;20035;-79
2022/07/05 01:33:06;;;;;;;15.05;5.95;;;;;;;12.64;85.00;101953.84;5067372;28;20452;-79
2022/07/05 01:35:33;;;;;;;15.30;5.95;;;;;;;12.62;84.83;101954.88;5068619;28;20443;-79
2022/07/05 01:37:58;;;;;;;14.32;5.40;;;;;;;12.56;84.65;101954.34;5075609;28;20379;-79
2022/07/05 01:40:24;;;;;;;16.75;6.20;;;;;;;12.53;85.04;101953.66;5067282;28;20035;-79
2022/07/05 01:42:49;;;;;;;16.60;6.55;;;;;;;12.52;85.12;101955.50;5072595;28;20029;-79
2022/07/05 01:48:00;;;;;;;16.45;6.65;;;;;;;12.41;85.36;101961.53;5069276;28;20035;-79
2022/07/05 01:50:28;;;;;;;19.17;6.47;;;;;;;12.35;85.27;101956.56;5069772;28;20540;-79
2022/07/05 01:52:55;;;;;;;18.50;6.55;;;;;;;12.37;85.37;101960.03;5068463;28;20142;-79
2022/07/05 01:55:20;;;;;;;17.00;7.07;;;;;;;12.34;85.71;101953.94;5070767;28;20021;-79
2022/07/05 01:57:46;;;;;;;17.55;6.80;;;;;;;12.35;85.42;101953.84;5076136;28;20403;-79
2022/07/05 02:00:11;;;;;;;18.60;7.43;;;;;;;12.34;86.08;101956.66;5069492;28;20028;-79
2022/07/05 02:02:41;;;;;;;14.38;6.32;;;;;;;12.32;85.74;101954.06;5066137;28;20016;-79
2022/07/05 02:05:06;;;;;;;18.23;6.28;;;;;;;12.31;85.68;101944.22;5069228;28;20091;-79
2022/07/05 02:07:31;;;;;;;16.85;6.85;;;;;;;12.32;85.79;101943.28;5076882;28;20397;-79
2022/07/05 02:09:57;;;;;;;18.95;7.07;;;;;;;12.29;84.98;101943.47;5073253;28;20131;-79
2022/07/05 02:12:22;;;;;;;18.77;6.65;;;;;;;12.28;85.42;101930.94;5067755;28;20044;-78
2022/07/05 02:14:47;;;;;;;18.08;7.05;;;;;;;12.29;85.45;101937.22;5075473;28;20356;-78
2022/07/05 02:17:13;;;;;;;15.80;6.30;;;;;;;12.29;85.53;101948.00;5066968;28;20024;-78
2022/07/05 02:19:38;;;;;;;18.48;6.60;;;;;;;12.30;85.77;101949.72;5067844;28;20083;-78
2022/07/05 02:22:04;;;;;;;17.58;6.90;;;;;;;12.31;86.12;101946.91;5069104;28;20024;-78
2022/07/05 02:24:29;;;;;;;18.23;6.32;;;;;;;12.32;85.73;101945.97;5068788;28;20650;-78
2022/07/05 02:26:54;;;;;;;15.80;6.03;;;;;;;12.35;85.15;101940.38;5074094;28;20119;-78
2022/07/05 02:29:20;;;;;;;17.17;6.70;;;;;;;12.37;84.42;101945.66;5069483;28;20036;-78
2022/07/05 02:31:45;;;;;;;17.90;7.22;;;;;;;12.38;84.76;101944.72;5079763;28;20078;-78
2022/07/05 02:34:11;;;;;;;16.85;6.80;;;;;;;12.37;85.11;101945.66;5066537;28;20089;-78
2022/07/05 02:36:36;;;;;;;20.45;7.32;;;;;;;12.33;85.48;101945.00;5067560;28;20036;-78
2022/07/05 02:39:01;;;;;;;15.38;5.93;;;;;;;12.33;85.09;101939.63;5072599;28;20479;-78
2022/07/05 02:41:27;;;;;;;18.10;6.78;;;;;;;12.29;84.31;101939.91;5070570;28;20109;-78
2022/07/05 02:43:52;;;;;;;17.67;6.85;;;;;;;12.29;84.57;101942.63;5073950;28;20035;-78
2022/07/05 02:46:18;;;;;;;17.88;7.20;;;;;;;12.28;84.85;101947.13;5064053;28;20519;-78
2022/07/05 02:48:43;;;;;;;16.75;6.38;;;;;;;12.27;84.40;101945.41;5069105;28;20032;-78
2022/07/05 02:51:09;;;;;;;20.85;7.90;;;;;;;12.25;84.75;101950.00;5070371;28;20123;-78
2022/07/05 02:53:34;;;;;;;18.20;7.15;;;;;;;12.25;84.67;101952.69;5066038;28;20483;-78
2022/07/05 02:56:00;;;;;;;17.80;7.05;;;;;;;12.21;85.39;101957.44;5074560;28;20024;-78
2022/07/05 02:58:26;;;;;;;19.55;7.65;;;;;;;12.19;84.77;101953.94;5067730;28;20028;-78
2022/07/05 03:00:52;;;;;;;21.10;7.25;;;;;;;12.16;84.82;101958.69;5071011;28;21001;-78
2022/07/05 03:03:17;;;;;;;18.55;7.40;;;;;;;12.15;84.86;101956.94;5062540;28;20024;-79
2022/07/05 03:05:43;;;;;;;17.08;6.68;;;;;;;12.14;85.35;101956.09;5067866;28;20122;-79
2022/07/05 03:08:09;;;;;;;18.35;6.90;;;;;;;12.14;84.18;101961.47;5067449;28;20109;-79
2022/07/05 03:10:35;;;;;;;17.50;6.65;;;;;;;12.12;84.25;101973.31;5073338;28;20033;-79
2022/07/05 03:13:01;;;;;;;17.63;7.00;;;;;;;12.06;84.77;101970.03;5072303;28;20032;-79
2022/07/05 03:15:26;;;;;;;17.45;7.15;;;;;;;12.05;84.80;101970.13;5069602;28;20108;-79
2022/07/05 03:17:52;;;;;;;18.42;7.60;;;;;;;12.03;84.92;101964.81;5074009;28;20363;-79
2022/07/05 03:20:17;;;;;;;17.55;6.88;;;;;;;12.00;84.58;101969.53;5069392;28;20020;-79
2022/07/05 03:22:42;;;;;;;18.73;7.65;;;;;;;11.98;84.58;101972.31;5076964;28;20674;-79
2022/07/05 03:25:08;;;;;;;17.42;6.70;;;;;;;11.94;84.91;101975.31;5072920;28;20073;-79
2022/07/05 03:27:33;;;;;;;17.88;7.30;;;;;;;11.93;85.16;101977.13;5066414;28;20036;-79
2022/07/05 03:29:59;;;;;;;17.77;7.45;;;;;;;11.94;85.11;101980.69;5066564;28;20032;-79
2022/07/05 03:32:24;;;;;;;18.25;7.15;;;;;;;11.91;85.18;101986.25;5066905;28;20016;-79
2022/07/05 03:34:49;;;;;;;18.75;8.40;;;;;;;11.87;85.52;101980.16;5066662;28;20089;-79
2022/07/05 03:37:15;;;;;;;17.48;7.43;;;;;;;11.85;85.63;101982.94;5071752;28;20112;-79
2022/07/05 03:39:40;;;;;;;17.83;7.70;;;;;;;11.81;85.59;101980.53;5068565;28;20039;-79
2022/07/05 03:42:05;;;;;;;22.63;7.90;;;;;;;11.82;85.88;101987.66;5078332;28;20025;-79
2022/07/05 03:44:32;;;;;;;20.08;7.57;;;;;;;11.82;85.92;101977.75;5074679;28;20101;-79
2022/07/05 03:46:58;;;;;;;19.38;8.27;;;;;;;11.86;85.99;101984.69;5068392;28;20028;-79
2022/07/05 03:49:23;;;;;;;18.27;7.53;;;;;;;11.86;86.41;101984.69;5064263;28;20027;-79
2022/07/05 03:51:49;;;;;;;19.65;7.40;;;;;;;11.88;87.00;101998.06;5075632;28;20024;-79
2022/07/05 03:54:14;;;;;;;21.05;7.93;;;;;;;11.88;86.81;101987.28;5077371;28;20036;-78
2022/07/05 03:56:39;;;;;;;18.05;7.60;;;;;;;11.94;86.67;101991.47;5070162;28;20131;-79
2022/07/05 03:59:04;;;;;;;19.90;7.68;;;;;;;11.99;86.64;101992.03;5070988;28;20119;-79
2022/07/05 04:01:30;;;;;;;18.75;7.70;;;;;;;12.04;86.79;101992.66;5072549;28;20101;-79
2022/07/05 04:03:55;;;;;;;19.30;7.78;;;;;;;12.12;86.89;101995.72;5079279;28;20035;-79
2022/07/05 04:06:20;;;;;;;18.55;7.88;;;;;;;12.18;86.75;101995.34;5071469;28;20039;-79
2022/07/05 04:08:46;;;;;;;18.48;7.75;;;;;;;12.24;87.34;101999.50;5080589;28;20439;-79
2022/07/05 04:11:12;;;;;;;19.17;8.25;;;;;;;12.24;87.69;102003.06;5072742;28;20055;-79
2022/07/05 04:13:38;;;;;;;20.00;8.45;;;;;;;12.29;87.22;102000.06;5075546;28;20145;-79
2022/07/05 04:16:04;;;;;;;22.40;9.20;;;;;;;12.36;87.74;102005.97;5071178;28;20056;-79
2022/07/05 04:18:30;;;;;;;20.98;8.45;;;;;;;12.40;87.96;102005.66;5052521;28;20123;-79
2022/07/05 04:20:56;;;;;;;20.20;8.18;;;;;;;12.40;88.66;102004.78;5071583;28;20107;-79
2022/07/05 04:23:21;;;;;;;19.60;9.43;;;;;;;12.46;88.52;102004.41;5069002;28;20645;-79
2022/07/05 04:25:47;;;;;;;19.70;8.75;;;;;;;12.54;87.67;101998.53;5071097;28;20036;-79
2022/07/05 04:28:12;;;;;;;21.10;9.43;;;;;;;12.62;89.30;102011.53;5077282;28;20028;-79
2022/07/05 04:30:37;;;;;;;20.80;9.73;;;;;;;12.67;88.91;102004.88;5072316;28;20020;-79
2022/07/05 04:33:02;;;;;;;21.77;9.57;;;;;;;12.71;88.32;102008.28;5084693;28;20101;-79
2022/07/05 04:35:28;;;;;;;20.15;10.05;;;;;;;12.75;88.19;102005.28;5074410;28;20075;-79
2022/07/05 04:37:53;;;;;;;20.80;10.48;;;;;;;12.80;87.84;102002.28;5078333;28;20035;-79
2022/07/05 04:40:19;;;;;;;20.92;9.57;;;;;;;12.90;88.77;102008.81;5072115;28;20382;-79
2022/07/05 04:42:44;;;;;;;21.92;9.23;;;;;;;12.96;89.24;102006.66;5076205;28;20446;-79
2022/07/05 04:45:10;;;;;;;21.08;10.20;;;;;;;13.03;89.05;102003.47;5073007;28;20111;-79
2022/07/05 04:47:35;;;;;;;20.40;9.65;;;;;;;13.09;88.82;101994.13;5076051;28;20039;-79
2022/07/05 04:50:02;;;;;;;21.30;9.80;;;;;;;13.14;87.16;102000.06;5069759;28;20032;-79
2022/07/05 04:52:27;;;;;;;23.02;11.15;;;;;;;13.21;87.45;101998.69;5068089;28;20028;-79
2022/07/05 04:54:52;;;;;;;21.80;11.00;;;;;;;13.27;87.87;101995.59;5073859;28;20074;-79
2022/07/05 04:57:18;;;;;;;22.38;10.68;;;;;;;13.33;86.80;101998.88;5073436;28;20115;-79
2022/07/05 04:59:44;;;;;;;21.63;10.10;;;;;;;13.40;87.64;101995.69;5069002;28;20472;-79
2022/07/05 05:02:10;;;;;;;21.42;9.98;;;;;;;13.45;86.79;101998.06;5077719;28;20123;-79
2022/07/05 05:04:35;;;;;;;22.83;10.45;;;;;;;13.53;86.23;102000.22;5079432;28;20050;-79
2022/07/05 05:07:00;;;;;;;25.13;10.77;;;;;;;13.59;85.76;102002.53;5087019;28;20028;-79
2022/07/05 05:09:26;;;;;;;22.13;10.20;;;;;;;13.66;86.29;102001.16;5074549;28;20028;-79
2022/07/05 05:11:51;;;;;;;21.90;10.35;;;;;;;13.72;86.04;101999.84;5069321;28;20412;-79
2022/07/05 05:14:16;;;;;;;22.23;10.60;;;;;;;13.77;85.32;102003.13;5085655;28;20471;-79
2022/07/05 05:16:41;;;;;;;21.40;10.88;;;;;;;13.84;84.98;101998.19;5077366;28;20461;-79
2022/07/05 05:19:07;;;;;;;23.90;10.70;;;;;;;13.89;85.99;102001.41;5079810;28;20033;-79
2022/07/05 05:21:32;;;;;;;23.30;11.25;;;;;;;13.95;85.27;102000.97;5077228;28;20444;-79
2022/07/05 05:23:57;;;;;;;21.80;11.43;;;;;;;14.03;85.85;102001.31;5072086;28;20464;-79
2022/07/05 05:26:23;;;;;;;22.52;11.07;;;;;;;14.12;86.47;102013.34;5076820;28;20061;-79
2022/07/05 05:28:49;;;;;;;22.25;10.73;;;;;;;14.15;84.77;102019.38;5071575;28;20089;-79
2022/07/05 05:31:14;;;;;;;23.33;11.75;;;;;;;14.21;84.10;102020.78;5074998;28;20161;-79
2022/07/05 05:33:40;;;;;;;23.23;12.15;;;;;;;14.28;83.78;102013.97;5086151;28;20031;-79
2022/07/05 05:36:05;;;;;;;22.17;10.43;;;;;;;14.34;83.12;102027.06;5076862;28;20074;-79
2022/07/05 05:38:31;;;;;;;22.20;11.95;;;;;;;14.41;83.81;102030.22;5087620;28;20419;-79
2022/07/05 05:40:56;;;;;;;24.25;11.70;;;;;;;14.43;82.37;102030.94;5071757;28;20174;-79
2022/07/05 05:43:21;;;;;;;21.35;10.77;;;;;;;14.48;82.16;102036.91;5072019;28;20020;-80
2022/07/05 05:45:47;;;;;;;22.75;11.57;;;;;;;14.54;82.17;102034.72;5077687;28;20029;-80
2022/07/05 05:48:12;;;;;;;26.20;12.07;;;;;;;14.60;83.30;102034.31;5073501;28;20050;-79
2022/07/05 05:50:41;;;;;;;26.10;13.23;;;;;;;14.62;81.96;102027.84;5071781;28;20117;-79
2022/07/05 05:53:07;;;;;;;24.05;11.18;;;;;;;14.64;81.15;102035.84;5085525;28;20036;-80
2022/07/05 05:55:33;;;;;;;24.63;11.70;;;;;;;14.62;81.27;102038.66;5080369;28;20020;-80
2022/07/05 05:58:23;;;;;;;23.70;11.65;;;;;;;14.70;82.29;102039.94;5081000;28;20050;-80
2022/07/05 06:00:51;;;;;;;23.75;12.25;;;;;;;14.70;82.14;102051.66;5080857;28;20152;-79
2022/07/05 06:03:23;;;;;;;24.25;13.27;;;;;;;14.76;82.96;102042.22;5087235;28;20023;-79
2022/07/05 06:05:49;;;;;;;25.08;13.23;;;;;;;14.80;82.28;102047.31;5085266;28;20036;-79
2022/07/05 06:08:14;;;;;;;23.75;12.85;;;;;;;14.85;82.31;102049.69;5058928;28;20059;-79
2022/07/05 06:10:41;;;;;;;23.75;13.07;;;;;;;14.90;82.40;102047.50;5078423;28;20032;-79
2022/07/05 06:13:09;;;;;;;24.85;13.10;;;;;;;14.93;81.19;102043.72;5069453;28;20069;-79
2022/07/05 06:15:36;;;;;;;24.77;12.60;;;;;;;14.96;81.33;102054.31;5079785;28;20031;-79
2022/07/05 06:18:02;;;;;;;24.23;12.30;;;;;;;15.01;81.83;102047.59;5084545;28;20111;-79
2022/07/05 06:20:30;;;;;;;22.60;11.82;;;;;;;15.07;81.23;102053.53;5082116;28;20024;-79
2022/07/05 06:22:56;;;;;;;21.67;11.60;;;;;;;15.13;80.06;102055.78;5073718;28;20104;-79
2022/07/05 06:25:22;;;;;;;24.38;11.77;;;;;;;15.18;79.08;102050.88;5070446;28;20039;-79
2022/07/05 06:27:50;;;;;;;23.98;11.68;;;;;;;15.24;79.76;102049.56;5073407;28;20035;-79
2022/07/05 06:30:19;;;;;;;23.20;12.50;;;;;;;15.28;79.17;102056.50;5066691;28;20020;-79
2022/07/05 06:32:45;;;;;;;26.63;12.93;;;;;;;15.33;80.44;102062.44;5068343;28;20040;-79
2022/07/05 06:35:11;;;;;;;23.48;12.60;;;;;;;15.39;80.40;102064.69;5076083;28;20062;-79
2022/07/05 06:37:46;;;;;;;22.90;12.65;;;;;;;15.45;79.33;102064.25;5074254;28;20028;-79
2022/07/05 06:40:14;;;;;;;24.15;14.63;;;;;;;15.51;80.47;102068.34;5072867;28;20024;-79
2022/07/05 06:42:39;;;;;;;24.25;12.60;;;;;;;15.58;81.09;102066.91;5080439;28;20088;-79
2022/07/05 06:45:06;;;;;;;26.52;12.48;;;;;;;15.65;81.41;102067.28;5075181;28;20048;-79
2022/07/05 06:47:32;;;;;;;24.95;12.68;;;;;;;15.71;80.69;102062.28;5067905;28;20119;-79
2022/07/05 06:49:58;;;;;;;24.80;12.10;;;;;;;15.77;79.08;102071.78;5069447;28;20454;-80
2022/07/05 06:52:23;;;;;;;23.55;12.23;;;;;;;15.83;79.53;102070.50;5077024;28;20036;-80
2022/07/05 06:54:48;;;;;;;22.15;11.23;;;;;;;15.85;78.93;102080.22;5074529;28;20497;-79
2022/07/05 06:57:14;;;;;;;23.90;11.70;;;;;;;15.88;79.75;102065.56;5070574;28;20084;-80
2022/07/05 06:59:39;;;;;;;25.45;12.20;;;;;;;15.90;79.24;102063.59;5078758;28;20032;-80
2022/07/05 07:02:04;;;;;;;24.08;11.98;;;;;;;15.92;79.22;102067.06;5069518;28;20491;-80
2022/07/05 07:04:29;;;;;;;23.50;12.30;;;;;;;15.96;78.31;102065.84;5063780;28;20020;-82
2022/07/05 07:06:55;;;;;;;23.02;10.60;;;;;;;16.05;79.52;102067.00;5065327;28;20032;-84
2022/07/05 07:09:23;;;;;;;24.30;11.60;;;;;;;16.19;80.47;102071.34;5064319;28;20025;-80
2022/07/05 07:11:49;;;;;;;20.45;10.38;;;;;;;16.29;79.90;102074.22;5064531;28;20412;-75
2022/07/05 07:14:15;;;;;;;22.17;10.32;;;;;;;16.38;80.70;102079.78;5058969;28;20086;-75
2022/07/05 07:16:41;;;;;;;23.90;11.45;;;;;;;16.46;78.77;102076.47;5064241;28;20045;-76
2022/07/05 07:19:06;;;;;;;20.55;9.52;;;;;;;16.50;77.63;102074.34;5068623;28;20913;-76
2022/07/05 07:21:32;;;;;;;21.23;9.82;;;;;;;16.57;78.66;102068.34;5076372;28;20025;-76
2022/07/05 07:23:57;;;;;;;21.85;10.38;;;;;;;16.63;78.67;102074.25;5062511;28;20036;-76
2022/07/05 07:26:22;;;;;;;21.58;10.02;;;;;;;16.72;79.10;102081.66;5068026;28;20111;-76
2022/07/05 07:28:47;;;;;;;22.52;9.85;;;;;;;16.76;79.67;102073.16;5072119;28;20171;-77
2022/07/05 07:31:13;;;;;;;21.52;9.98;;;;;;;16.86;79.00;102075.13;5069360;28;20408;-76
2022/07/05 07:33:38;;;;;;;24.55;10.65;;;;;;;16.92;79.33;102077.38;5069491;28;20030;-76
2022/07/05 07:36:04;;;;;;;23.48;9.60;;;;;;;16.97;78.17;102082.44;5082444;28;20475;-76
2022/07/05 07:38:29;;;;;;;21.05;9.63;;;;;;;17.04;79.44;102084.53;5067918;28;20040;-76
2022/07/05 07:40:55;;;;;;;24.85;9.32;;;;;;;17.10;79.41;102085.88;5065957;28;20115;-76
2022/07/05 07:43:21;;;;;;;24.75;9.20;;;;;;;17.17;79.72;102089.81;5060648;28;20085;-76
2022/07/05 07:45:47;;;;;;;21.40;9.65;;;;;;;17.23;79.06;102092.06;5066093;28;20422;-76
2022/07/05 07:48:12;;;;;;;20.98;8.65;;;;;;;17.28;78.87;102088.97;5071155;28;20428;-76
2022/07/05 07:50:37;;;;;;;20.85;9.32;;;;;;;17.35;78.68;102092.91;5076016;28;20230;-75
2022/07/05 07:53:02;;;;;;;23.00;9.48;;;;;;;17.40;78.99;102087.94;5074677;28;20491;-75
2022/07/05 07:55:29;;;;;;;22.35;8.50;;;;;;;17.46;78.48;102089.28;5075629;28;20076;-75
2022/07/05 07:57:54;;;;;;;21.73;8.52;;;;;;;17.54;78.92;102091.34;5066014;28;20031;-75
2022/07/05 08:00:20;;;;;;;25.45;8.98;;;;;;;17.59;78.61;102098.13;5067834;28;20025;-75
2022/07/05 08:02:45;;;;;;;23.35;9.35;;;;;;;17.64;77.74;102093.19;5068064;28;20042;-77
2022/07/05 08:05:10;;;;;;;22.45;8.38;;;;;;;17.70;77.79;102089.09;5064370;28;20021;-76
2022/07/05 08:07:36;;;;;;;23.15;10.18;;;;;;;17.74;76.64;102095.97;5065258;28;20127;-76
2022/07/05 08:10:03;;;;;;;25.08;10.30;;;;;;;17.77;76.37;102092.16;5071067;28;20021;-76
2022/07/05 08:12:28;;;;;;;23.85;9.75;;;;;;;17.80;76.59;102091.88;5062761;28;20041;-76
2022/07/05 08:14:54;;;;;;;21.42;10.68;;;;;;;17.85;76.22;102091.50;5066006;28;20028;-76
2022/07/05 08:17:20;;;;;;;23.20;10.30;;;;;;;17.90;76.80;102102.88;5067289;28;20418;-76
2022/07/05 08:22:31;;;;;;;22.45;11.55;;;;;;;17.99;78.09;102097.53;5068652;28;20035;-76
2022/07/05 08:24:56;;;;;;;27.33;12.02;;;;;;;18.03;77.09;102097.28;5063521;28;20095;-76
2022/07/05 08:27:21;;;;;;;24.00;11.63;;;;;;;18.08;78.15;102097.72;5065075;28;20024;-76
2022/07/05 08:29:47;;;;;;;29.45;12.15;;;;;;;18.10;76.75;102104.78;5061578;28;20097;-76
2022/07/05 08:32:13;;;;;;;23.17;10.85;;;;;;;18.14;76.56;102105.38;5074990;28;20035;-76
2022/07/05 08:34:38;;;;;;;24.58;11.90;;;;;;;18.17;76.90;102100.53;5071828;28;20024;-76
2022/07/05 08:37:04;;;;;;;21.90;9.95;;;;;;;18.19;75.80;102099.56;5076468;28;20035;-76
2022/07/05 08:39:30;;;;;;;23.13;11.60;;;;;;;18.20;76.01;102096.69;5073681;28;20037;-76
2022/07/05 08:41:57;;;;;;;21.33;10.23;;;;;;;18.18;74.44;102090.50;5067299;28;20119;-76
2022/07/05 08:44:23;;;;;;;21.60;10.18;;;;;;;18.21;75.59;102089.38;5074989;28;20035;-76
2022/07/05 08:46:52;;;;;;;21.70;10.77;;;;;;;18.23;75.83;102096.44;5077713;28;20020;-76
2022/07/05 08:49:25;;;;;;;23.70;10.75;;;;;;;18.28;75.15;102091.44;5069726;28;20017;-76
2022/07/05 08:51:51;;;;;;;23.20;10.05;;;;;;;18.26;73.22;102095.28;5071642;28;20094;-77
2022/07/05 08:54:17;;;;;;;22.33;8.70;;;;;;;18.26;73.29;102095.28;5065387;28;20021;-77
2022/07/05 08:56:44;;;;;;;20.00;8.98;;;;;;;18.31;73.63;102087.59;5069102;28;20034;-76
2022/07/05 08:59:09;;;;;;;21.58;9.48;;;;;;;18.38;74.44;102080.63;5068293;28;20400;-76
2022/07/05 09:01:36;;;;;;;23.38;9.45;;;;;;;18.39;71.97;102090.53;5067990;28;20032;-76
2022/07/05 09:04:04;;;;;;;21.35;8.23;;;;;;;18.47;72.43;102092.56;5086354;28;20036;-74
2022/07/05 09:06:32;;;;;;;25.00;9.90;;;;;;;18.52;70.29;102093.00;5087687;28;20059;-76
2022/07/05 09:08:59;;;;;;;19.30;9.35;;;;;;;18.54;70.05;102095.59;5066713;28;20110;-76
2022/07/05 09:11:34;;;;;;;19.52;8.02;;;;;;;18.56;70.77;102096.34;5069934;28;20068;-76
2022/07/05 09:14:02;;;;;;;22.67;8.07;;;;;;;18.59;69.56;102098.78;5070874;28;20134;-76
2022/07/05 09:16:27;;;;;;;20.67;7.93;;;;;;;18.61;70.64;102100.41;5075460;28;20387;-80
2022/07/05 09:18:54;;;;;;;20.83;8.82;;;;;;;18.67;70.36;102101.72;5067782;28;20039;-80
2022/07/05 09:21:27;;;;;;;19.83;8.45;;;;;;;18.66;67.88;102106.28;5069998;28;20090;-80
2022/07/05 09:24:04;;;;;;;17.27;8.02;;;;;;;18.67;68.77;102097.13;5065806;28;20051;-81
2022/07/05 09:26:35;;;;;;;19.92;9.05;;;;;;;18.73;68.40;102093.00;5072613;28;20037;-81
2022/07/05 09:29:04;;;;;;;28.02;8.50;;;;;;;18.81;67.20;102095.88;5077599;28;20036;-80
2022/07/05 09:31:34;;;;;;;22.48;10.35;;;;;;;18.91;68.61;102098.69;5072592;28;20044;-80
2022/07/05 09:34:12;;;;;;;19.05;8.02;;;;;;;19.04;69.53;102090.28;5076500;28;20020;-83
2022/07/05 09:36:51;;;;;;;20.07;9.13;;;;;;;19.11;67.78;102094.19;5071107;28;20036;-81
2022/07/05 09:39:38;;;;;;;21.05;8.48;;;;;;;19.23;68.79;102102.28;5079156;28;20071;-80
2022/07/05 09:42:09;;;;;;;23.58;9.90;;;;;;;19.30;66.19;102095.28;5068866;28;20491;-79
2022/07/05 09:44:46;;;;;;;18.35;7.63;;;;;;;19.37;66.00;102085.50;5072633;28;20115;-79
2022/07/05 09:47:14;;;;;;;13.70;6.05;;;;;;;19.39;60.58;102081.63;5073075;28;20028;-80
2022/07/05 09:49:44;;;;;;;16.23;5.93;;;;;;;19.44;59.78;102086.66;5079560;28;20478;-81
2022/07/05 09:52:12;;;;;;;16.35;5.78;;;;;;;19.45;61.31;102080.22;5078453;28;20028;-81
2022/07/05 09:54:37;;;;;;;19.55;5.93;;;;;;;19.44;58.43;102075.75;5079662;28;20028;-81
2022/07/05 09:57:03;;;;;;;13.82;4.55;;;;;;;19.45;58.01;102082.94;5065557;28;20020;-81
2022/07/05 09:59:28;;;;;;;13.75;5.55;;;;;;;19.42;58.39;102085.09;5068176;28;20109;-80
2022/07/05 10:01:53;;;;;;;13.20;5.30;;;;;;;19.37;59.33;102086.38;5075043;28;20043;-79
2022/07/05 10:04:19;;;;;;;16.02;5.82;;;;;;;19.34;59.19;102085.78;5076438;28;20040;-79
2022/07/05 10:06:45;;;;;;;18.98;6.15;;;;;;;19.31;60.97;102077.88;5072507;28;20380;-80
2022/07/05 10:09:11;;;;;;;21.60;6.32;;;;;;;19.28;60.62;102080.91;5074071;28;20043;-80
2022/07/05 10:11:40;;;;;;;16.90;6.28;;;;;;;19.31;61.25;102086.06;5076482;28;20054;-80
2022/07/05 10:14:11;;;;;;;15.57;5.78;;;;;;;19.31;58.58;102080.63;5076581;28;20495;-80
2022/07/05 10:16:37;;;;;;;20.08;6.40;;;;;;;19.30;58.44;102089.81;5072330;28;20088;-80
2022/07/05 10:19:08;;;;;;;18.10;7.95;;;;;;;19.35;61.62;102093.81;5071232;28;20032;-80
2022/07/05 10:21:34;;;;;;;19.58;8.07;;;;;;;19.42;59.45;102093.28;5067117;28;20499;-80
2022/07/05 10:24:00;;;;;;;17.65;7.13;;;;;;;19.45;60.40;102091.13;5068762;28;20056;-80
2022/07/05 10:26:28;;;;;;;18.63;6.30;;;;;;;19.51;57.81;102086.97;5076444;28;20480;-80
2022/07/05 10:28:54;;;;;;;19.33;6.28;;;;;;;19.59;59.08;102089.88;5070230;28;20466;-80
2022/07/05 10:31:20;;;;;;;17.08;6.68;;;;;;;19.65;57.73;102082.97;5077796;28;20027;-80
2022/07/05 10:33:45;;;;;;;14.88;5.65;;;;;;;19.66;57.68;102084.69;5070879;28;20028;-80
2022/07/05 10:36:12;;;;;;;14.35;4.40;;;;;;;19.64;60.46;102084.84;5076420;28;20034;-79
2022/07/05 10:38:40;;;;;;;13.25;5.15;;;;;;;19.61;58.84;102087.00;5077440;28;20020;-80
2022/07/05 10:41:08;;;;;;;15.55;5.40;;;;;;;19.59;58.95;102078.06;5072863;28;20044;-79
2022/07/05 10:43:33;;;;;;;16.17;5.22;;;;;;;19.63;60.66;102084.97;5069729;28;20578;-79
2022/07/05 10:45:59;;;;;;;15.82;5.93;;;;;;;19.69;61.35;102078.94;5073413;28;20028;-80
2022/07/05 10:48:26;;;;;;;14.00;4.75;;;;;;;19.76;61.84;102079.25;5076489;28;20032;-80
2022/07/05 10:50:59;;;;;;;12.13;4.57;;;;;;;19.83;62.48;102077.72;5070566;28;20073;-80
2022/07/05 10:53:32;;;;;;;14.20;4.90;;;;;;;19.88;58.86;102079.00;5071877;28;20039;-80
2022/07/05 10:56:04;;;;;;;16.98;3.88;;;;;;;19.94;62.17;102083.00;5065983;28;20078;-79
2022/07/05 10:58:36;;;;;;;17.85;5.50;;;;;;;19.96;58.14;102091.06;5063907;28;20460;-80
2022/07/05 11:01:23;;;;;;;16.05;5.10;;;;;;;19.98;58.76;102089.91;5069672;28;20457;-79
2022/07/05 11:03:52;;;;;;;13.10;4.65;;;;;;;19.97;54.06;102090.03;5066765;28;20077;-79
2022/07/05 11:06:25;;;;;;;13.98;4.38;;;;;;;19.98;56.36;102089.91;5080533;28;20431;-80
2022/07/05 11:08:57;;;;;;;12.80;3.70;;;;;;;19.98;59.39;102097.22;5062436;28;20049;-79
2022/07/05 11:11:27;;;;;;;12.68;4.00;;;;;;;19.95;57.29;102097.53;5068818;28;20482;-79
2022/07/05 11:13:54;;;;;;;12.35;3.63;;;;;;;19.95;56.94;102092.06;5074395;28;20067;-79
2022/07/05 11:16:29;;;;;;;11.60;3.70;;;;;;;19.95;58.15;102102.97;5074484;28;20048;-79